Sedgwick, KS (67135)

1:19 AM CDT on March 29, 2017 (GMT -0500)
77th and West | | Change Station

Elev 1316 ft 37.83 °N, 97.40 °W | Updated 31 seconds ago

Rain
Rain
49.8 °F
Feels Like 48 °F
N
5.8
Wind Variable Wind from NE

Today
High -- | Low -- °F
--% Chance of Precip.
Yesterday
High -- | Low -- °F
Precip. -- in
Pressure 29.87 in
Visibility 1.5 miles
Clouds Scattered Clouds 700 ft
Mostly Cloudy 2500 ft
Overcast 3100 ft
Windchill 48 °F
Dew Point 50 °F
Humidity 99%
Rainfall 0.81 in
Snow Depth Not available.
7:18 AM 7:50 PM
New Moon, 2% visible
SPECI KEWK 290614Z AUTO 02021G27KT 1 1/2SM +RA BR SCT007 BKN025 OVC031 09/09 A2987 RMK AO2 PK WND 01031/0558 P0026 TSNO
Pressure 29.87 in
Visibility 1.5 miles
Clouds Scattered Clouds 700 ft
Mostly Cloudy 2500 ft
Overcast 3100 ft
Windchill 48 °F
Dew Point 50 °F
Humidity 99%
Rainfall 0.81 in
Snow Depth Not available.
7:18 AM 7:50 PM
New Moon, 2% visible
SPECI KEWK 290614Z AUTO 02021G27KT 1 1/2SM +RA BR SCT007 BKN025 OVC031 09/09 A2987 RMK AO2 PK WND 01031/0558 P0026 TSNO

Get Severe Weather Alerts

Thanks for signing up!

Be on the lookout for a verification email in your inbox.

You'll start receiving the daily forecast at 8 AM.

×

10-Day Weather Forecast

Almanac

Astronomy

Mar. 29, 2017 Rise Set
Actual Time
Civil Twilight
Nautical Twilight
Astronomical Twilight
Moon
Length of Visible Light
Length of Day
Tomorrow will be .
, % of the Moon is Illuminated

Today's Extremes

State Highs State Lows

Community

WunderPhotos

Upload Photos

1,962,540 photos uploaded!

WunderBlog® & News

Nearby

Air Quality

  Air Quality AQ Index Pollutant
Not available.

Snow Depth

Station Depth Elevation

Earthquake Activity

City Distance Mag. Time & Date
Minimum magnitude displayed is 2.5.

Earthquake Activity

City Distance Mag. Time & Date
Minimum magnitude displayed is 2.5.

Coastal Water Temperatures

Place Temperature

Stations

Nearby Weather Stations

Station Location Temp. Windchill Dew Point Humidity Wind Precip. Elev Updated Type
                   

Watches & Warnings

There are currently no watches in effect.